sensor_id;sensor_type;location;lat;lon;timestamp;temperature;humidity
43772;HTU21D;59066;54.782;32.024;2023-06-24T00:01:44;20.79;58.48
43772;HTU21D;59066;54.782;32.024;2023-06-24T00:04:11;20.79;58.29
43772;HTU21D;59066;54.782;32.024;2023-06-24T00:06:42;20.83;58.07
43772;HTU21D;59066;54.782;32.024;2023-06-24T00:09:09;20.88;57.74
43772;HTU21D;59066;54.782;32.024;2023-06-24T00:11:37;20.90;57.70
43772;HTU21D;59066;54.782;32.024;2023-06-24T00:14:04;20.90;57.63
43772;HTU21D;59066;54.782;32.024;2023-06-24T00:16:33;20.93;57.51
43772;HTU21D;59066;54.782;32.024;2023-06-24T00:19:03;20.96;57.34
43772;HTU21D;59066;54.782;32.024;2023-06-24T00:21:30;20.92;57.42
43772;HTU21D;59066;54.782;32.024;2023-06-24T00:23:59;20.88;57.51
43772;HTU21D;59066;54.782;32.024;2023-06-24T00:26:31;20.81;57.62
43772;HTU21D;59066;54.782;32.024;2023-06-24T00:28:59;20.85;57.58
43772;HTU21D;59066;54.782;32.024;2023-06-24T00:31:27;20.89;57.55
43772;HTU21D;59066;54.782;32.024;2023-06-24T00:33:55;20.86;57.51
43772;HTU21D;59066;54.782;32.024;2023-06-24T00:36:22;20.83;57.48
43772;HTU21D;59066;54.782;32.024;2023-06-24T00:38:50;20.81;57.61
43772;HTU21D;59066;54.782;32.024;2023-06-24T00:41:17;20.84;57.55
43772;HTU21D;59066;54.782;32.024;2023-06-24T00:43:46;20.78;57.77
43772;HTU21D;59066;54.782;32.024;2023-06-24T00:46:13;20.76;57.87
43772;HTU21D;59066;54.782;32.024;2023-06-24T00:48:42;20.73;57.88
43772;HTU21D;59066;54.782;32.024;2023-06-24T00:51:10;20.63;58.10
43772;HTU21D;59066;54.782;32.024;2023-06-24T00:53:37;20.59;58.41
43772;HTU21D;59066;54.782;32.024;2023-06-24T00:56:05;20.57;58.51
43772;HTU21D;59066;54.782;32.024;2023-06-24T00:58:35;20.53;58.70
43772;HTU21D;59066;54.782;32.024;2023-06-24T01:01:10;20.50;59.02
43772;HTU21D;59066;54.782;32.024;2023-06-24T01:03:38;20.45;59.15
43772;HTU21D;59066;54.782;32.024;2023-06-24T01:06:06;20.43;59.31
43772;HTU21D;59066;54.782;32.024;2023-06-24T01:08:35;20.36;59.52
43772;HTU21D;59066;54.782;32.024;2023-06-24T01:11:06;20.31;59.84
43772;HTU21D;59066;54.782;32.024;2023-06-24T01:13:33;20.25;59.91
43772;HTU21D;59066;54.782;32.024;2023-06-24T01:16:08;20.19;60.33
43772;HTU21D;59066;54.782;32.024;2023-06-24T01:18:47;20.09;60.71
43772;HTU21D;59066;54.782;32.024;2023-06-24T01:32:06;20.16;60.74
43772;HTU21D;59066;54.782;32.024;2023-06-24T01:34:55;20.24;60.87
43772;HTU21D;59066;54.782;32.024;2023-06-24T01:37:44;20.16;60.99
43772;HTU21D;59066;54.782;32.024;2023-06-24T01:40:22;20.14;61.05
43772;HTU21D;59066;54.782;32.024;2023-06-24T01:42:53;20.19;60.96
43772;HTU21D;59066;54.782;32.024;2023-06-24T01:45:26;20.18;61.10
43772;HTU21D;59066;54.782;32.024;2023-06-24T01:48:02;20.12;61.20
43772;HTU21D;59066;54.782;32.024;2023-06-24T01:50:35;20.12;61.16
43772;HTU21D;59066;54.782;32.024;2023-06-24T01:53:05;20.13;61.38
43772;HTU21D;59066;54.782;32.024;2023-06-24T01:55:34;20.12;61.33
43772;HTU21D;59066;54.782;32.024;2023-06-24T01:58:05;20.13;61.43
43772;HTU21D;59066;54.782;32.024;2023-06-24T02:00:35;20.18;61.30
43772;HTU21D;59066;54.782;32.024;2023-06-24T02:03:04;20.22;61.30
43772;HTU21D;59066;54.782;32.024;2023-06-24T02:05:33;20.28;61.14
43772;HTU21D;59066;54.782;32.024;2023-06-24T02:08:03;20.25;61.15
43772;HTU21D;59066;54.782;32.024;2023-06-24T02:10:31;20.22;61.20
43772;HTU21D;59066;54.782;32.024;2023-06-24T02:13:00;20.21;61.31
43772;HTU21D;59066;54.782;32.024;2023-06-24T02:15:28;20.22;61.33
43772;HTU21D;59066;54.782;32.024;2023-06-24T02:17:57;20.20;61.37
43772;HTU21D;59066;54.782;32.024;2023-06-24T02:20:25;20.22;61.34
43772;HTU21D;59066;54.782;32.024;2023-06-24T02:22:54;20.24;61.29
43772;HTU21D;59066;54.782;32.024;2023-06-24T02:25:24;20.18;61.37
43772;HTU21D;59066;54.782;32.024;2023-06-24T02:27:54;20.18;61.52
43772;HTU21D;59066;54.782;32.024;2023-06-24T02:30:22;20.18;61.43
43772;HTU21D;59066;54.782;32.024;2023-06-24T02:32:52;20.18;61.35
43772;HTU21D;59066;54.782;32.024;2023-06-24T02:35:19;20.16;61.47
43772;HTU21D;59066;54.782;32.024;2023-06-24T02:37:47;20.22;61.36
43772;HTU21D;59066;54.782;32.024;2023-06-24T02:40:15;20.25;61.40
43772;HTU21D;59066;54.782;32.024;2023-06-24T02:42:43;20.16;61.63
43772;HTU21D;59066;54.782;32.024;2023-06-24T02:45:11;20.04;62.15
43772;HTU21D;59066;54.782;32.024;2023-06-24T02:47:41;19.96;62.43
43772;HTU21D;59066;54.782;32.024;2023-06-24T02:50:11;19.95;62.47
43772;HTU21D;59066;54.782;32.024;2023-06-24T02:52:40;19.95;62.41
43772;HTU21D;59066;54.782;32.024;2023-06-24T02:55:10;19.86;62.87
43772;HTU21D;59066;54.782;32.024;2023-06-24T02:57:47;19.89;62.93
43772;HTU21D;59066;54.782;32.024;2023-06-24T03:00:36;19.85;62.90
43772;HTU21D;59066;54.782;32.024;2023-06-24T03:03:11;19.86;62.97
43772;HTU21D;59066;54.782;32.024;2023-06-24T03:05:53;19.88;63.18
43772;HTU21D;59066;54.782;32.024;2023-06-24T03:08:23;19.96;62.88
43772;HTU21D;59066;54.782;32.024;2023-06-24T03:10:57;20.01;62.82
43772;HTU21D;59066;54.782;32.024;2023-06-24T03:13:29;20.10;62.81
43772;HTU21D;59066;54.782;32.024;2023-06-24T03:16:11;20.00;63.08
43772;HTU21D;59066;54.782;32.024;2023-06-24T03:19:02;19.95;63.59
43772;HTU21D;59066;54.782;32.024;2023-06-24T03:21:29;19.88;64.01
43772;HTU21D;59066;54.782;32.024;2023-06-24T03:24:07;19.86;63.97
43772;HTU21D;59066;54.782;32.024;2023-06-24T03:26:38;19.80;64.33
43772;HTU21D;59066;54.782;32.024;2023-06-24T03:29:08;19.73;64.59
43772;HTU21D;59066;54.782;32.024;2023-06-24T03:31:39;19.71;64.78
43772;HTU21D;59066;54.782;32.024;2023-06-24T03:34:15;19.66;65.03
43772;HTU21D;59066;54.782;32.024;2023-06-24T03:36:44;19.67;65.08
43772;HTU21D;59066;54.782;32.024;2023-06-24T03:39:13;19.77;64.85
43772;HTU21D;59066;54.782;32.024;2023-06-24T03:41:41;19.80;64.85
43772;HTU21D;59066;54.782;32.024;2023-06-24T03:44:11;19.83;64.80
43772;HTU21D;59066;54.782;32.024;2023-06-24T03:46:38;19.86;64.69
43772;HTU21D;59066;54.782;32.024;2023-06-24T03:49:07;19.87;64.65
43772;HTU21D;59066;54.782;32.024;2023-06-24T03:51:35;19.90;64.59
43772;HTU21D;59066;54.782;32.024;2023-06-24T03:54:03;19.91;64.50
43772;HTU21D;59066;54.782;32.024;2023-06-24T03:56:30;19.97;64.45
43772;HTU21D;59066;54.782;32.024;2023-06-24T03:58:58;20.06;64.17
43772;HTU21D;59066;54.782;32.024;2023-06-24T04:01:25;20.04;64.32
43772;HTU21D;59066;54.782;32.024;2023-06-24T04:03:53;20.06;64.47
43772;HTU21D;59066;54.782;32.024;2023-06-24T04:06:20;20.15;64.38
43772;HTU21D;59066;54.782;32.024;2023-06-24T04:08:48;20.26;64.22
43772;HTU21D;59066;54.782;32.024;2023-06-24T04:11:15;20.39;64.11
43772;HTU21D;59066;54.782;32.024;2023-06-24T04:13:44;20.35;64.40
43772;HTU21D;59066;54.782;32.024;2023-06-24T04:16:12;20.41;64.33
43772;HTU21D;59066;54.782;32.024;2023-06-24T04:18:40;20.44;64.11
43772;HTU21D;59066;54.782;32.024;2023-06-24T04:21:07;20.47;64.05
43772;HTU21D;59066;54.782;32.024;2023-06-24T04:23:35;20.51;63.92
43772;HTU21D;59066;54.782;32.024;2023-06-24T04:26:02;20.65;63.53
43772;HTU21D;59066;54.782;32.024;2023-06-24T04:28:30;20.66;63.39
43772;HTU21D;59066;54.782;32.024;2023-06-24T04:30:57;20.79;63.12
43772;HTU21D;59066;54.782;32.024;2023-06-24T04:33:25;20.94;62.76
43772;HTU21D;59066;54.782;32.024;2023-06-24T04:35:53;21.01;62.47
43772;HTU21D;59066;54.782;32.024;2023-06-24T04:38:23;21.13;62.15
43772;HTU21D;59066;54.782;32.024;2023-06-24T04:40:51;21.24;61.79
43772;HTU21D;59066;54.782;32.024;2023-06-24T04:43:18;21.32;61.54
43772;HTU21D;59066;54.782;32.024;2023-06-24T04:45:46;21.36;61.34
43772;HTU21D;59066;54.782;32.024;2023-06-24T04:48:13;21.49;61.08
43772;HTU21D;59066;54.782;32.024;2023-06-24T04:50:41;21.57;60.80
43772;HTU21D;59066;54.782;32.024;2023-06-24T04:53:09;21.57;60.74
43772;HTU21D;59066;54.782;32.024;2023-06-24T04:55:37;21.66;60.48
43772;HTU21D;59066;54.782;32.024;2023-06-24T04:58:04;21.72;60.31
43772;HTU21D;59066;54.782;32.024;2023-06-24T05:00:32;21.76;60.21
43772;HTU21D;59066;54.782;32.024;2023-06-24T05:03:00;21.72;60.13
43772;HTU21D;59066;54.782;32.024;2023-06-24T05:05:27;21.67;60.63
43772;HTU21D;59066;54.782;32.024;2023-06-24T05:07:55;21.76;60.46
43772;HTU21D;59066;54.782;32.024;2023-06-24T05:10:22;21.73;60.40
43772;HTU21D;59066;54.782;32.024;2023-06-24T05:12:49;21.75;60.47
43772;HTU21D;59066;54.782;32.024;2023-06-24T05:15:17;21.75;60.41
43772;HTU21D;59066;54.782;32.024;2023-06-24T05:17:45;21.70;60.66
43772;HTU21D;59066;54.782;32.024;2023-06-24T05:20:12;21.67;60.95
43772;HTU21D;59066;54.782;32.024;2023-06-24T05:22:40;21.65;60.87
43772;HTU21D;59066;54.782;32.024;2023-06-24T05:25:07;21.54;61.15
43772;HTU21D;59066;54.782;32.024;2023-06-24T05:27:35;21.59;61.09
43772;HTU21D;59066;54.782;32.024;2023-06-24T05:30:02;21.49;61.52
43772;HTU21D;59066;54.782;32.024;2023-06-24T05:32:30;21.60;61.48
43772;HTU21D;59066;54.782;32.024;2023-06-24T05:34:58;21.81;61.02
43772;HTU21D;59066;54.782;32.024;2023-06-24T05:37:25;21.81;60.94
43772;HTU21D;59066;54.782;32.024;2023-06-24T05:39:52;21.89;61.05
43772;HTU21D;59066;54.782;32.024;2023-06-24T05:42:20;21.82;61.11
43772;HTU21D;59066;54.782;32.024;2023-06-24T05:44:47;21.74;61.34
43772;HTU21D;59066;54.782;32.024;2023-06-24T05:47:14;21.76;61.34
43772;HTU21D;59066;54.782;32.024;2023-06-24T05:49:42;21.70;61.50
43772;HTU21D;59066;54.782;32.024;2023-06-24T05:52:11;21.76;61.64
43772;HTU21D;59066;54.782;32.024;2023-06-24T05:54:38;21.83;61.58
43772;HTU21D;59066;54.782;32.024;2023-06-24T05:57:06;21.97;61.52
43772;HTU21D;59066;54.782;32.024;2023-06-24T05:59:33;22.13;61.19
43772;HTU21D;59066;54.782;32.024;2023-06-24T06:02:01;22.10;61.16
43772;HTU21D;59066;54.782;32.024;2023-06-24T06:04:39;22.06;61.34
43772;HTU21D;59066;54.782;32.024;2023-06-24T06:07:06;22.04;61.19
43772;HTU21D;59066;54.782;32.024;2023-06-24T06:09:33;21.96;61.59
43772;HTU21D;59066;54.782;32.024;2023-06-24T06:12:01;22.10;61.19
43772;HTU21D;59066;54.782;32.024;2023-06-24T06:14:28;22.16;60.94
43772;HTU21D;59066;54.782;32.024;2023-06-24T06:16:56;22.10;61.04
43772;HTU21D;59066;54.782;32.024;2023-06-24T06:19:23;22.12;61.10
43772;HTU21D;59066;54.782;32.024;2023-06-24T06:21:51;22.18;61.12
43772;HTU21D;59066;54.782;32.024;2023-06-24T06:24:19;22.23;61.05
43772;HTU21D;59066;54.782;32.024;2023-06-24T06:26:46;22.19;61.06
43772;HTU21D;59066;54.782;32.024;2023-06-24T06:29:13;22.21;61.18
43772;HTU21D;59066;54.782;32.024;2023-06-24T06:31:41;22.33;61.02
43772;HTU21D;59066;54.782;32.024;2023-06-24T06:34:14;22.38;60.90
43772;HTU21D;59066;54.782;32.024;2023-06-24T06:36:44;22.42;60.85
43772;HTU21D;59066;54.782;32.024;2023-06-24T06:39:11;22.49;60.86
43772;HTU21D;59066;54.782;32.024;2023-06-24T06:41:39;22.55;60.80
43772;HTU21D;59066;54.782;32.024;2023-06-24T06:44:14;22.65;60.65
43772;HTU21D;59066;54.782;32.024;2023-06-24T06:46:42;22.75;60.47
43772;HTU21D;59066;54.782;32.024;2023-06-24T06:49:09;22.82;60.44
43772;HTU21D;59066;54.782;32.024;2023-06-24T06:51:37;22.88;60.35
43772;HTU21D;59066;54.782;32.024;2023-06-24T06:54:04;22.95;60.19
43772;HTU21D;59066;54.782;32.024;2023-06-24T06:56:32;23.07;59.99
43772;HTU21D;59066;54.782;32.024;2023-06-24T06:58:59;23.22;59.68
43772;HTU21D;59066;54.782;32.024;2023-06-24T07:01:26;23.29;59.31
43772;HTU21D;59066;54.782;32.024;2023-06-24T07:03:54;23.32;59.33
43772;HTU21D;59066;54.782;32.024;2023-06-24T07:06:22;23.46;58.90
43772;HTU21D;59066;54.782;32.024;2023-06-24T07:08:49;23.60;58.74
43772;HTU21D;59066;54.782;32.024;2023-06-24T07:11:16;23.74;58.35
43772;HTU21D;59066;54.782;32.024;2023-06-24T07:13:44;23.80;57.87
43772;HTU21D;59066;54.782;32.024;2023-06-24T07:16:13;23.85;57.58
43772;HTU21D;59066;54.782;32.024;2023-06-24T07:18:40;23.95;57.26
43772;HTU21D;59066;54.782;32.024;2023-06-24T07:21:08;24.01;56.86
43772;HTU21D;59066;54.782;32.024;2023-06-24T07:23:35;24.12;56.29
43772;HTU21D;59066;54.782;32.024;2023-06-24T07:26:02;24.18;55.81
43772;HTU21D;59066;54.782;32.024;2023-06-24T07:28:30;24.21;55.48
43772;HTU21D;59066;54.782;32.024;2023-06-24T07:30:57;24.24;54.83
43772;HTU21D;59066;54.782;32.024;2023-06-24T07:33:25;24.29;54.41
43772;HTU21D;59066;54.782;32.024;2023-06-24T07:35:52;24.30;53.83
43772;HTU21D;59066;54.782;32.024;2023-06-24T07:38:20;24.41;53.16
43772;HTU21D;59066;54.782;32.024;2023-06-24T07:40:47;24.57;52.58
43772;HTU21D;59066;54.782;32.024;2023-06-24T07:43:15;24.69;52.28
43772;HTU21D;59066;54.782;32.024;2023-06-24T07:45:43;24.78;51.98
43772;HTU21D;59066;54.782;32.024;2023-06-24T07:48:10;24.84;51.79
43772;HTU21D;59066;54.782;32.024;2023-06-24T07:50:39;24.89;51.68
43772;HTU21D;59066;54.782;32.024;2023-06-24T07:53:06;25.12;51.16
43772;HTU21D;59066;54.782;32.024;2023-06-24T07:55:33;25.24;50.70
43772;HTU21D;59066;54.782;32.024;2023-06-24T07:58:01;25.32;50.17
43772;HTU21D;59066;54.782;32.024;2023-06-24T08:00:30;25.28;50.08
43772;HTU21D;59066;54.782;32.024;2023-06-24T08:02:58;25.38;49.79
43772;HTU21D;59066;54.782;32.024;2023-06-24T08:05:25;25.38;49.73
43772;HTU21D;59066;54.782;32.024;2023-06-24T08:07:53;25.39;49.67
43772;HTU21D;59066;54.782;32.024;2023-06-24T08:10:21;25.54;49.51
43772;HTU21D;59066;54.782;32.024;2023-06-24T08:12:49;25.61;49.37
43772;HTU21D;59066;54.782;32.024;2023-06-24T08:15:16;25.73;48.92
43772;HTU21D;59066;54.782;32.024;2023-06-24T08:17:44;25.80;48.47
43772;HTU21D;59066;54.782;32.024;2023-06-24T08:20:11;25.87;48.27
43772;HTU21D;59066;54.782;32.024;2023-06-24T08:22:39;25.97;47.99
43772;HTU21D;59066;54.782;32.024;2023-06-24T08:25:07;26.13;47.79
43772;HTU21D;59066;54.782;32.024;2023-06-24T08:27:34;26.36;47.50
43772;HTU21D;59066;54.782;32.024;2023-06-24T08:30:03;26.50;47.18
43772;HTU21D;59066;54.782;32.024;2023-06-24T08:32:31;26.57;46.56
43772;HTU21D;59066;54.782;32.024;2023-06-24T08:34:59;26.64;46.30
43772;HTU21D;59066;54.782;32.024;2023-06-24T08:37:26;26.80;46.09
43772;HTU21D;59066;54.782;32.024;2023-06-24T08:39:55;26.83;45.49
43772;HTU21D;59066;54.782;32.024;2023-06-24T08:42:24;26.82;45.22
43772;HTU21D;59066;54.782;32.024;2023-06-24T08:44:51;26.84;45.09
43772;HTU21D;59066;54.782;32.024;2023-06-24T08:47:19;26.86;44.74
43772;HTU21D;59066;54.782;32.024;2023-06-24T08:49:48;26.93;43.95
43772;HTU21D;59066;54.782;32.024;2023-06-24T08:52:16;26.89;43.88
43772;HTU21D;59066;54.782;32.024;2023-06-24T08:54:46;27.05;43.51
43772;HTU21D;59066;54.782;32.024;2023-06-24T08:57:15;27.17;43.49
43772;HTU21D;59066;54.782;32.024;2023-06-24T08:59:43;27.16;43.22
43772;HTU21D;59066;54.782;32.024;2023-06-24T09:02:11;27.19;43.00
43772;HTU21D;59066;54.782;32.024;2023-06-24T09:04:39;27.38;42.81
43772;HTU21D;59066;54.782;32.024;2023-06-24T09:07:07;27.40;42.26
43772;HTU21D;59066;54.782;32.024;2023-06-24T09:09:43;27.54;41.84
43772;HTU21D;59066;54.782;32.024;2023-06-24T09:12:13;27.85;41.24
43772;HTU21D;59066;54.782;32.024;2023-06-24T09:14:47;28.00;40.48
43772;HTU21D;59066;54.782;32.024;2023-06-24T09:17:15;28.17;40.39
43772;HTU21D;59066;54.782;32.024;2023-06-24T09:19:43;28.39;40.07
43772;HTU21D;59066;54.782;32.024;2023-06-24T09:22:11;28.61;39.73
43772;HTU21D;59066;54.782;32.024;2023-06-24T09:24:46;28.83;39.40
43772;HTU21D;59066;54.782;32.024;2023-06-24T09:27:15;28.62;39.23
43772;HTU21D;59066;54.782;32.024;2023-06-24T09:29:43;28.33;39.46
43772;HTU21D;59066;54.782;32.024;2023-06-24T09:32:11;28.17;39.37
43772;HTU21D;59066;54.782;32.024;2023-06-24T09:34:39;28.05;39.25
43772;HTU21D;59066;54.782;32.024;2023-06-24T09:37:07;28.05;38.96
43772;HTU21D;59066;54.782;32.024;2023-06-24T09:39:39;28.19;38.18
43772;HTU21D;59066;54.782;32.024;2023-06-24T09:42:07;28.34;38.29
43772;HTU21D;59066;54.782;32.024;2023-06-24T09:44:35;28.32;37.91
43772;HTU21D;59066;54.782;32.024;2023-06-24T09:47:02;28.32;37.74
43772;HTU21D;59066;54.782;32.024;2023-06-24T09:49:30;28.00;37.85
43772;HTU21D;59066;54.782;32.024;2023-06-24T09:51:58;27.84;37.98
43772;HTU21D;59066;54.782;32.024;2023-06-24T09:54:27;27.76;37.54
43772;HTU21D;59066;54.782;32.024;2023-06-24T09:57:02;27.81;37.32
43772;HTU21D;59066;54.782;32.024;2023-06-24T09:59:31;27.86;37.33
43772;HTU21D;59066;54.782;32.024;2023-06-24T10:02:02;27.84;37.46
43772;HTU21D;59066;54.782;32.024;2023-06-24T10:04:31;28.27;37.00
43772;HTU21D;59066;54.782;32.024;2023-06-24T10:07:00;28.88;36.27
43772;HTU21D;59066;54.782;32.024;2023-06-24T10:09:27;28.84;38.35
43772;HTU21D;59066;54.782;32.024;2023-06-24T10:11:55;28.87;39.99
43772;HTU21D;59066;54.782;32.024;2023-06-24T10:14:22;29.24;39.86
43772;HTU21D;59066;54.782;32.024;2023-06-24T10:16:50;29.47;39.98
43772;HTU21D;59066;54.782;32.024;2023-06-24T10:19:21;30.04;38.41
43772;HTU21D;59066;54.782;32.024;2023-06-24T10:21:52;30.62;38.40
43772;HTU21D;59066;54.782;32.024;2023-06-24T10:24:35;31.40;35.53
43772;HTU21D;59066;54.782;32.024;2023-06-24T10:27:04;32.35;35.60
43772;HTU21D;59066;54.782;32.024;2023-06-24T10:29:38;33.08;32.57
43772;HTU21D;59066;54.782;32.024;2023-06-24T10:32:07;33.74;31.18
43772;HTU21D;59066;54.782;32.024;2023-06-24T10:39:51;34.07;27.94
43772;HTU21D;59066;54.782;32.024;2023-06-24T10:47:40;34.47;26.27
43772;HTU21D;59066;54.782;32.024;2023-06-24T10:50:12;34.82;26.55
43772;HTU21D;59066;54.782;32.024;2023-06-24T10:52:45;35.52;26.28
43772;HTU21D;59066;54.782;32.024;2023-06-24T10:55:16;35.60;25.62
43772;HTU21D;59066;54.782;32.024;2023-06-24T10:57:44;35.84;25.33
43772;HTU21D;59066;54.782;32.024;2023-06-24T11:00:13;35.93;24.31
43772;HTU21D;59066;54.782;32.024;2023-06-24T11:02:41;35.80;23.90
43772;HTU21D;59066;54.782;32.024;2023-06-24T11:05:09;35.83;23.58
43772;HTU21D;59066;54.782;32.024;2023-06-24T11:07:39;35.67;22.76
43772;HTU21D;59066;54.782;32.024;2023-06-24T11:10:11;36.07;22.78
43772;HTU21D;59066;54.782;32.024;2023-06-24T11:12:40;36.31;21.99
43772;HTU21D;59066;54.782;32.024;2023-06-24T11:15:12;36.90;21.01
43772;HTU21D;59066;54.782;32.024;2023-06-24T11:17:41;36.90;20.24
43772;HTU21D;59066;54.782;32.024;2023-06-24T11:20:13;37.29;19.61
43772;HTU21D;59066;54.782;32.024;2023-06-24T11:22:42;38.03;18.81
43772;HTU21D;59066;54.782;32.024;2023-06-24T11:25:18;38.92;17.11
43772;HTU21D;59066;54.782;32.024;2023-06-24T11:27:46;39.34;17.49
43772;HTU21D;59066;54.782;32.024;2023-06-24T11:30:13;38.94;17.12
43772;HTU21D;59066;54.782;32.024;2023-06-24T11:32:43;38.51;17.09
43772;HTU21D;59066;54.782;32.024;2023-06-24T11:35:12;37.03;17.95
43772;HTU21D;59066;54.782;32.024;2023-06-24T11:37:46;36.15;18.67
43772;HTU21D;59066;54.782;32.024;2023-06-24T11:40:16;35.83;18.89
43772;HTU21D;59066;54.782;32.024;2023-06-24T11:42:49;36.07;19.29
43772;HTU21D;59066;54.782;32.024;2023-06-24T11:45:21;37.07;18.49
43772;HTU21D;59066;54.782;32.024;2023-06-24T11:47:49;37.10;21.18
43772;HTU21D;59066;54.782;32.024;2023-06-24T11:50:17;36.41;23.72
43772;HTU21D;59066;54.782;32.024;2023-06-24T11:52:46;35.80;24.67
43772;HTU21D;59066;54.782;32.024;2023-06-24T12:00:35;35.58;24.64
43772;HTU21D;59066;54.782;32.024;2023-06-24T12:03:07;35.89;24.30
43772;HTU21D;59066;54.782;32.024;2023-06-24T12:05:38;36.06;23.58
43772;HTU21D;59066;54.782;32.024;2023-06-24T12:08:10;35.78;23.29
43772;HTU21D;59066;54.782;32.024;2023-06-24T12:10:38;35.36;23.59
43772;HTU21D;59066;54.782;32.024;2023-06-24T12:13:06;34.41;24.75
43772;HTU21D;59066;54.782;32.024;2023-06-24T12:15:35;33.74;25.67
43772;HTU21D;59066;54.782;32.024;2023-06-24T12:18:03;33.11;26.45
43772;HTU21D;59066;54.782;32.024;2023-06-24T12:20:31;32.85;26.59
43772;HTU21D;59066;54.782;32.024;2023-06-24T12:23:03;32.28;27.14
43772;HTU21D;59066;54.782;32.024;2023-06-24T12:25:33;31.58;27.94
43772;HTU21D;59066;54.782;32.024;2023-06-24T12:28:01;31.18;28.72
43772;HTU21D;59066;54.782;32.024;2023-06-24T12:30:28;31.07;29.42
43772;HTU21D;59066;54.782;32.024;2023-06-24T12:32:56;31.14;29.36
43772;HTU21D;59066;54.782;32.024;2023-06-24T12:35:24;31.42;29.45
43772;HTU21D;59066;54.782;32.024;2023-06-24T12:37:54;31.33;29.75
43772;HTU21D;59066;54.782;32.024;2023-06-24T12:40:21;31.22;30.03
43772;HTU21D;59066;54.782;32.024;2023-06-24T12:42:49;31.10;30.38
43772;HTU21D;59066;54.782;32.024;2023-06-24T12:45:16;31.40;30.58
43772;HTU21D;59066;54.782;32.024;2023-06-24T12:47:44;31.66;30.32
43772;HTU21D;59066;54.782;32.024;2023-06-24T12:50:11;32.16;29.80
43772;HTU21D;59066;54.782;32.024;2023-06-24T12:52:39;32.13;29.19
43772;HTU21D;59066;54.782;32.024;2023-06-24T12:55:06;31.56;29.51
43772;HTU21D;59066;54.782;32.024;2023-06-24T12:57:35;31.33;29.78
43772;HTU21D;59066;54.782;32.024;2023-06-24T13:00:04;31.56;30.05
43772;HTU21D;59066;54.782;32.024;2023-06-24T13:02:35;31.86;30.48
43772;HTU21D;59066;54.782;32.024;2023-06-24T13:05:03;31.90;30.82
43772;HTU21D;59066;54.782;32.024;2023-06-24T13:07:31;32.22;30.23
43772;HTU21D;59066;54.782;32.024;2023-06-24T13:09:59;32.53;29.79
43772;HTU21D;59066;54.782;32.024;2023-06-24T13:12:26;32.38;29.68
43772;HTU21D;59066;54.782;32.024;2023-06-24T13:14:54;31.94;29.92
43772;HTU21D;59066;54.782;32.024;2023-06-24T13:17:21;31.78;30.29
43772;HTU21D;59066;54.782;32.024;2023-06-24T13:19:49;31.44;30.54
43772;HTU21D;59066;54.782;32.024;2023-06-24T13:22:16;31.99;30.58
43772;HTU21D;59066;54.782;32.024;2023-06-24T13:24:44;32.85;30.64
43772;HTU21D;59066;54.782;32.024;2023-06-24T13:27:12;33.52;30.29
43772;HTU21D;59066;54.782;32.024;2023-06-24T13:29:39;34.15;29.40
43772;HTU21D;59066;54.782;32.024;2023-06-24T13:32:07;34.35;28.49
43772;HTU21D;59066;54.782;32.024;2023-06-24T13:34:35;34.55;27.26
43772;HTU21D;59066;54.782;32.024;2023-06-24T13:37:02;34.64;26.94
43772;HTU21D;59066;54.782;32.024;2023-06-24T13:39:31;34.69;26.64
43772;HTU21D;59066;54.782;32.024;2023-06-24T13:41:59;35.10;25.95
43772;HTU21D;59066;54.782;32.024;2023-06-24T13:44:27;34.76;26.26
43772;HTU21D;59066;54.782;32.024;2023-06-24T13:46:55;34.52;26.05
43772;HTU21D;59066;54.782;32.024;2023-06-24T13:49:22;34.15;26.36
43772;HTU21D;59066;54.782;32.024;2023-06-24T13:51:50;34.02;26.39
43772;HTU21D;59066;54.782;32.024;2023-06-24T13:54:17;33.97;26.52
43772;HTU21D;59066;54.782;32.024;2023-06-24T13:56:45;34.34;26.25
43772;HTU21D;59066;54.782;32.024;2023-06-24T13:59:13;34.27;26.06
43772;HTU21D;59066;54.782;32.024;2023-06-24T14:01:40;34.09;26.21
43772;HTU21D;59066;54.782;32.024;2023-06-24T14:04:08;34.53;25.86
43772;HTU21D;59066;54.782;32.024;2023-06-24T14:06:35;34.35;25.88
43772;HTU21D;59066;54.782;32.024;2023-06-24T14:09:03;33.76;26.31
43772;HTU21D;59066;54.782;32.024;2023-06-24T14:11:30;33.49;26.60
43772;HTU21D;59066;54.782;32.024;2023-06-24T14:13:58;33.06;27.52
43772;HTU21D;59066;54.782;32.024;2023-06-24T14:16:25;32.85;27.94
43772;HTU21D;59066;54.782;32.024;2023-06-24T14:18:52;32.57;28.33
43772;HTU21D;59066;54.782;32.024;2023-06-24T14:21:20;32.69;28.29
43772;HTU21D;59066;54.782;32.024;2023-06-24T14:23:48;32.59;28.80
43772;HTU21D;59066;54.782;32.024;2023-06-24T14:26:16;32.31;29.37
43772;HTU21D;59066;54.782;32.024;2023-06-24T14:28:44;32.39;29.35
43772;HTU21D;59066;54.782;32.024;2023-06-24T14:31:11;32.47;29.38
43772;HTU21D;59066;54.782;32.024;2023-06-24T14:33:39;32.24;29.63
43772;HTU21D;59066;54.782;32.024;2023-06-24T14:36:07;32.10;29.88
43772;HTU21D;59066;54.782;32.024;2023-06-24T14:38:34;31.99;30.03
43772;HTU21D;59066;54.782;32.024;2023-06-24T14:41:01;31.93;29.93
43772;HTU21D;59066;54.782;32.024;2023-06-24T14:43:29;31.98;30.09
43772;HTU21D;59066;54.782;32.024;2023-06-24T14:45:57;32.16;29.91
43772;HTU21D;59066;54.782;32.024;2023-06-24T14:48:25;32.19;29.99
43772;HTU21D;59066;54.782;32.024;2023-06-24T14:50:52;32.25;29.89
43772;HTU21D;59066;54.782;32.024;2023-06-24T14:53:19;32.55;29.86
43772;HTU21D;59066;54.782;32.024;2023-06-24T14:55:47;32.86;29.58
43772;HTU21D;59066;54.782;32.024;2023-06-24T14:58:14;32.56;30.01
43772;HTU21D;59066;54.782;32.024;2023-06-24T15:00:44;32.37;30.19
43772;HTU21D;59066;54.782;32.024;2023-06-24T15:03:12;32.37;30.06
43772;HTU21D;59066;54.782;32.024;2023-06-24T15:05:40;32.28;30.01
43772;HTU21D;59066;54.782;32.024;2023-06-24T15:08:07;32.50;29.51
43772;HTU21D;59066;54.782;32.024;2023-06-24T15:10:35;32.98;28.81
43772;HTU21D;59066;54.782;32.024;2023-06-24T15:13:02;32.56;29.02
43772;HTU21D;59066;54.782;32.024;2023-06-24T15:15:30;32.71;28.29
43772;HTU21D;59066;54.782;32.024;2023-06-24T15:17:57;32.66;28.23
43772;HTU21D;59066;54.782;32.024;2023-06-24T15:20:25;33.01;27.78
43772;HTU21D;59066;54.782;32.024;2023-06-24T15:22:52;33.45;27.35
43772;HTU21D;59066;54.782;32.024;2023-06-24T15:25:20;33.82;26.75
43772;HTU21D;59066;54.782;32.024;2023-06-24T15:27:47;33.66;27.07
43772;HTU21D;59066;54.782;32.024;2023-06-24T15:30:16;33.70;26.62
43772;HTU21D;59066;54.782;32.024;2023-06-24T15:32:43;33.60;26.64
43772;HTU21D;59066;54.782;32.024;2023-06-24T15:35:12;34.02;25.95
43772;HTU21D;59066;54.782;32.024;2023-06-24T15:37:40;34.05;25.45
43772;HTU21D;59066;54.782;32.024;2023-06-24T15:40:08;34.41;24.95